sensor_id;sensor_type;location;lat;lon;timestamp;P1;durP1;ratioP1;P2;durP2;ratioP2
60018;SDS011;45870;42.528;26.740;2023-06-22T00:00:48;14.15;;;11.45;;
60018;SDS011;45870;42.528;26.740;2023-06-22T00:03:14;17.30;;;11.45;;
60018;SDS011;45870;42.528;26.740;2023-06-22T00:05:40;14.82;;;11.60;;
60018;SDS011;45870;42.528;26.740;2023-06-22T00:08:06;13.98;;;11.55;;
60018;SDS011;45870;42.528;26.740;2023-06-22T00:10:31;16.48;;;11.70;;
60018;SDS011;45870;42.528;26.740;2023-06-22T00:12:57;13.50;;;10.88;;
60018;SDS011;45870;42.528;26.740;2023-06-22T00:15:23;14.27;;;10.63;;
60018;SDS011;45870;42.528;26.740;2023-06-22T00:17:49;13.27;;;10.60;;
60018;SDS011;45870;42.528;26.740;2023-06-22T00:20:15;13.18;;;10.35;;
60018;SDS011;45870;42.528;26.740;2023-06-22T00:22:43;13.88;;;10.85;;
60018;SDS011;45870;42.528;26.740;2023-06-22T00:25:09;18.42;;;10.65;;
60018;SDS011;45870;42.528;26.740;2023-06-22T00:27:36;13.18;;;10.23;;
60018;SDS011;45870;42.528;26.740;2023-06-22T00:30:02;12.85;;;9.90;;
60018;SDS011;45870;42.528;26.740;2023-06-22T00:32:28;11.98;;;9.32;;
60018;SDS011;45870;42.528;26.740;2023-06-22T00:34:53;20.10;;;11.85;;
60018;SDS011;45870;42.528;26.740;2023-06-22T00:37:19;16.10;;;11.00;;
60018;SDS011;45870;42.528;26.740;2023-06-22T00:39:50;15.70;;;11.60;;
60018;SDS011;45870;42.528;26.740;2023-06-22T00:42:16;14.52;;;9.95;;
60018;SDS011;45870;42.528;26.740;2023-06-22T00:44:42;19.30;;;15.75;;
60018;SDS011;45870;42.528;26.740;2023-06-22T00:47:10;35.63;;;28.73;;
60018;SDS011;45870;42.528;26.740;2023-06-22T00:49:38;75.45;;;54.58;;
60018;SDS011;45870;42.528;26.740;2023-06-22T00:52:04;84.97;;;68.72;;
60018;SDS011;45870;42.528;26.740;2023-06-22T00:54:35;90.03;;;74.95;;
60018;SDS011;45870;42.528;26.740;2023-06-22T00:57:01;101.15;;;81.03;;
60018;SDS011;45870;42.528;26.740;2023-06-22T00:59:27;106.57;;;85.10;;
60018;SDS011;45870;42.528;26.740;2023-06-22T01:01:54;104.20;;;81.35;;
60018;SDS011;45870;42.528;26.740;2023-06-22T01:04:21;93.95;;;77.97;;
60018;SDS011;45870;42.528;26.740;2023-06-22T01:07:02;94.82;;;76.47;;
60018;SDS011;45870;42.528;26.740;2023-06-22T01:09:31;86.32;;;66.20;;
60018;SDS011;45870;42.528;26.740;2023-06-22T01:12:01;87.75;;;66.95;;
60018;SDS011;45870;42.528;26.740;2023-06-22T01:14:41;86.57;;;66.43;;
60018;SDS011;45870;42.528;26.740;2023-06-22T01:17:08;87.25;;;68.85;;
60018;SDS011;45870;42.528;26.740;2023-06-22T01:22:22;81.03;;;61.10;;
60018;SDS011;45870;42.528;26.740;2023-06-22T01:30:22;69.70;;;51.45;;
60018;SDS011;45870;42.528;26.740;2023-06-22T01:32:51;54.53;;;39.63;;
60018;SDS011;45870;42.528;26.740;2023-06-22T01:35:19;50.63;;;38.58;;
60018;SDS011;45870;42.528;26.740;2023-06-22T01:37:46;91.95;;;58.72;;
60018;SDS011;45870;42.528;26.740;2023-06-22T01:40:12;99.38;;;59.03;;
60018;SDS011;45870;42.528;26.740;2023-06-22T01:42:40;86.07;;;53.65;;
60018;SDS011;45870;42.528;26.740;2023-06-22T01:45:08;62.65;;;42.92;;
60018;SDS011;45870;42.528;26.740;2023-06-22T01:47:36;31.10;;;23.42;;
60018;SDS011;45870;42.528;26.740;2023-06-22T01:50:02;23.00;;;17.13;;
60018;SDS011;45870;42.528;26.740;2023-06-22T01:52:28;20.75;;;17.52;;
60018;SDS011;45870;42.528;26.740;2023-06-22T01:54:54;26.52;;;17.17;;
60018;SDS011;45870;42.528;26.740;2023-06-22T01:57:20;24.38;;;17.02;;
60018;SDS011;45870;42.528;26.740;2023-06-22T02:02:35;15.52;;;13.15;;
60018;SDS011;45870;42.528;26.740;2023-06-22T02:05:08;19.00;;;13.15;;
60018;SDS011;45870;42.528;26.740;2023-06-22T02:07:46;18.10;;;12.93;;
60018;SDS011;45870;42.528;26.740;2023-06-22T02:10:34;18.75;;;12.75;;
60018;SDS011;45870;42.528;26.740;2023-06-22T02:13:03;13.27;;;11.43;;
60018;SDS011;45870;42.528;26.740;2023-06-22T02:15:32;17.52;;;12.60;;
60018;SDS011;45870;42.528;26.740;2023-06-22T02:17:59;22.42;;;13.38;;
60018;SDS011;45870;42.528;26.740;2023-06-22T02:20:25;15.30;;;11.98;;
60018;SDS011;45870;42.528;26.740;2023-06-22T02:22:51;20.90;;;12.88;;
60018;SDS011;45870;42.528;26.740;2023-06-22T02:25:16;17.05;;;12.05;;
60018;SDS011;45870;42.528;26.740;2023-06-22T02:27:42;19.48;;;11.77;;
60018;SDS011;45870;42.528;26.740;2023-06-22T02:30:08;15.23;;;10.77;;
60018;SDS011;45870;42.528;26.740;2023-06-22T02:32:35;12.45;;;10.07;;
60018;SDS011;45870;42.528;26.740;2023-06-22T02:35:01;11.30;;;9.68;;
60018;SDS011;45870;42.528;26.740;2023-06-22T02:37:30;12.55;;;9.68;;
60018;SDS011;45870;42.528;26.740;2023-06-22T02:39:56;13.60;;;9.52;;
60018;SDS011;45870;42.528;26.740;2023-06-22T02:42:22;16.10;;;10.80;;
60018;SDS011;45870;42.528;26.740;2023-06-22T02:44:47;20.98;;;12.57;;
60018;SDS011;45870;42.528;26.740;2023-06-22T02:47:13;12.95;;;10.57;;
60018;SDS011;45870;42.528;26.740;2023-06-22T02:49:39;12.00;;;10.15;;
60018;SDS011;45870;42.528;26.740;2023-06-22T02:52:04;13.00;;;10.15;;
60018;SDS011;45870;42.528;26.740;2023-06-22T02:54:30;12.65;;;9.50;;
60018;SDS011;45870;42.528;26.740;2023-06-22T02:56:56;12.43;;;9.10;;
60018;SDS011;45870;42.528;26.740;2023-06-22T02:59:22;27.00;;;13.77;;
60018;SDS011;45870;42.528;26.740;2023-06-22T03:01:51;56.45;;;23.65;;
60018;SDS011;45870;42.528;26.740;2023-06-22T03:04:17;47.63;;;20.42;;
60018;SDS011;45870;42.528;26.740;2023-06-22T03:06:43;49.78;;;20.75;;
60018;SDS011;45870;42.528;26.740;2023-06-22T03:09:09;31.13;;;14.73;;
60018;SDS011;45870;42.528;26.740;2023-06-22T03:11:34;18.55;;;10.63;;
60018;SDS011;45870;42.528;26.740;2023-06-22T03:14:00;18.45;;;10.60;;
60018;SDS011;45870;42.528;26.740;2023-06-22T03:16:26;13.43;;;8.98;;
60018;SDS011;45870;42.528;26.740;2023-06-22T03:18:52;11.07;;;8.43;;
60018;SDS011;45870;42.528;26.740;2023-06-22T03:21:27;14.52;;;8.93;;
60018;SDS011;45870;42.528;26.740;2023-06-22T03:23:53;13.13;;;8.68;;
60018;SDS011;45870;42.528;26.740;2023-06-22T03:26:19;11.35;;;7.20;;
60018;SDS011;45870;42.528;26.740;2023-06-22T03:28:45;13.95;;;9.32;;
60018;SDS011;45870;42.528;26.740;2023-06-22T03:31:13;13.93;;;9.40;;
60018;SDS011;45870;42.528;26.740;2023-06-22T03:33:39;13.35;;;8.52;;
60018;SDS011;45870;42.528;26.740;2023-06-22T03:36:05;12.95;;;7.72;;
60018;SDS011;45870;42.528;26.740;2023-06-22T03:38:30;12.25;;;8.50;;
60018;SDS011;45870;42.528;26.740;2023-06-22T03:40:57;9.32;;;8.32;;
60018;SDS011;45870;42.528;26.740;2023-06-22T03:43:23;13.68;;;8.55;;
60018;SDS011;45870;42.528;26.740;2023-06-22T03:45:49;9.98;;;8.48;;
60018;SDS011;45870;42.528;26.740;2023-06-22T03:48:14;11.20;;;8.10;;
60018;SDS011;45870;42.528;26.740;2023-06-22T03:50:40;9.95;;;7.65;;
60018;SDS011;45870;42.528;26.740;2023-06-22T03:53:06;9.35;;;7.57;;
60018;SDS011;45870;42.528;26.740;2023-06-22T03:55:33;10.40;;;7.55;;
60018;SDS011;45870;42.528;26.740;2023-06-22T03:57:59;10.55;;;7.22;;
60018;SDS011;45870;42.528;26.740;2023-06-22T04:00:30;10.00;;;7.45;;
60018;SDS011;45870;42.528;26.740;2023-06-22T04:02:56;13.93;;;9.18;;
60018;SDS011;45870;42.528;26.740;2023-06-22T04:05:22;13.70;;;8.95;;
60018;SDS011;45870;42.528;26.740;2023-06-22T04:07:49;16.10;;;10.25;;
60018;SDS011;45870;42.528;26.740;2023-06-22T04:10:15;14.20;;;9.07;;
60018;SDS011;45870;42.528;26.740;2023-06-22T04:12:40;11.90;;;8.68;;
60018;SDS011;45870;42.528;26.740;2023-06-22T04:15:06;15.23;;;8.52;;
60018;SDS011;45870;42.528;26.740;2023-06-22T04:17:32;11.70;;;7.72;;
60018;SDS011;45870;42.528;26.740;2023-06-22T04:19:58;12.40;;;7.43;;
60018;SDS011;45870;42.528;26.740;2023-06-22T04:22:23;13.95;;;7.90;;
60018;SDS011;45870;42.528;26.740;2023-06-22T04:24:49;12.05;;;7.28;;
60018;SDS011;45870;42.528;26.740;2023-06-22T04:27:16;9.93;;;6.53;;
60018;SDS011;45870;42.528;26.740;2023-06-22T04:29:43;7.05;;;6.35;;
60018;SDS011;45870;42.528;26.740;2023-06-22T04:32:14;8.13;;;6.97;;
60018;SDS011;45870;42.528;26.740;2023-06-22T04:34:43;7.90;;;6.47;;
60018;SDS011;45870;42.528;26.740;2023-06-22T04:37:09;8.90;;;6.95;;
60018;SDS011;45870;42.528;26.740;2023-06-22T04:39:40;11.57;;;6.80;;
60018;SDS011;45870;42.528;26.740;2023-06-22T04:42:07;10.48;;;6.60;;
60018;SDS011;45870;42.528;26.740;2023-06-22T04:44:32;7.30;;;6.15;;
60018;SDS011;45870;42.528;26.740;2023-06-22T04:47:00;6.55;;;5.95;;
60018;SDS011;45870;42.528;26.740;2023-06-22T04:49:28;6.82;;;6.13;;
60018;SDS011;45870;42.528;26.740;2023-06-22T04:51:58;9.00;;;6.07;;
60018;SDS011;45870;42.528;26.740;2023-06-22T04:54:25;9.48;;;5.68;;
60018;SDS011;45870;42.528;26.740;2023-06-22T04:56:52;6.43;;;5.50;;
60018;SDS011;45870;42.528;26.740;2023-06-22T04:59:24;8.65;;;5.95;;
60018;SDS011;45870;42.528;26.740;2023-06-22T05:01:58;6.13;;;5.53;;
60018;SDS011;45870;42.528;26.740;2023-06-22T05:04:28;7.25;;;5.63;;
60018;SDS011;45870;42.528;26.740;2023-06-22T05:06:58;6.63;;;5.97;;
60018;SDS011;45870;42.528;26.740;2023-06-22T05:09:26;6.45;;;5.85;;
60018;SDS011;45870;42.528;26.740;2023-06-22T05:11:51;8.35;;;6.78;;
60018;SDS011;45870;42.528;26.740;2023-06-22T05:14:17;7.03;;;6.32;;
60018;SDS011;45870;42.528;26.740;2023-06-22T05:16:44;9.07;;;6.55;;
60018;SDS011;45870;42.528;26.740;2023-06-22T05:19:10;8.75;;;6.47;;
60018;SDS011;45870;42.528;26.740;2023-06-22T05:21:37;7.60;;;6.23;;
60018;SDS011;45870;42.528;26.740;2023-06-22T05:24:04;7.70;;;6.40;;
60018;SDS011;45870;42.528;26.740;2023-06-22T05:26:31;7.05;;;6.35;;
60018;SDS011;45870;42.528;26.740;2023-06-22T05:28:58;6.93;;;6.22;;
60018;SDS011;45870;42.528;26.740;2023-06-22T05:31:26;8.77;;;6.20;;
60018;SDS011;45870;42.528;26.740;2023-06-22T05:33:52;8.43;;;6.38;;
60018;SDS011;45870;42.528;26.740;2023-06-22T05:36:19;7.07;;;5.93;;
60018;SDS011;45870;42.528;26.740;2023-06-22T05:38:46;6.95;;;6.15;;
60018;SDS011;45870;42.528;26.740;2023-06-22T05:41:12;8.10;;;6.70;;
60018;SDS011;45870;42.528;26.740;2023-06-22T05:43:39;13.43;;;6.18;;
60018;SDS011;45870;42.528;26.740;2023-06-22T05:46:06;7.72;;;5.93;;
60018;SDS011;45870;42.528;26.740;2023-06-22T05:48:31;7.65;;;6.28;;
60018;SDS011;45870;42.528;26.740;2023-06-22T05:50:58;7.75;;;6.32;;
60018;SDS011;45870;42.528;26.740;2023-06-22T05:53:24;8.60;;;6.30;;
60018;SDS011;45870;42.528;26.740;2023-06-22T05:55:50;7.95;;;5.97;;
60018;SDS011;45870;42.528;26.740;2023-06-22T05:58:16;7.43;;;6.28;;
60018;SDS011;45870;42.528;26.740;2023-06-22T06:00:42;6.68;;;6.00;;
60018;SDS011;45870;42.528;26.740;2023-06-22T06:03:08;6.65;;;5.30;;
60018;SDS011;45870;42.528;26.740;2023-06-22T06:05:34;11.38;;;5.22;;
60018;SDS011;45870;42.528;26.740;2023-06-22T06:08:01;7.15;;;5.20;;
60018;SDS011;45870;42.528;26.740;2023-06-22T06:10:29;4.32;;;3.92;;
60018;SDS011;45870;42.528;26.740;2023-06-22T06:12:56;6.10;;;4.95;;
60018;SDS011;45870;42.528;26.740;2023-06-22T06:15:22;6.28;;;4.20;;
60018;SDS011;45870;42.528;26.740;2023-06-22T06:17:48;6.40;;;4.53;;
60018;SDS011;45870;42.528;26.740;2023-06-22T06:20:15;9.13;;;4.70;;
60018;SDS011;45870;42.528;26.740;2023-06-22T06:22:42;26.25;;;7.18;;
60018;SDS011;45870;42.528;26.740;2023-06-22T06:25:08;21.73;;;6.80;;
60018;SDS011;45870;42.528;26.740;2023-06-22T06:27:35;19.88;;;5.88;;
60018;SDS011;45870;42.528;26.740;2023-06-22T06:30:00;5.47;;;4.45;;
60018;SDS011;45870;42.528;26.740;2023-06-22T06:32:27;7.47;;;4.45;;
60018;SDS011;45870;42.528;26.740;2023-06-22T06:34:52;5.95;;;4.57;;
60018;SDS011;45870;42.528;26.740;2023-06-22T06:37:18;4.93;;;4.43;;
60018;SDS011;45870;42.528;26.740;2023-06-22T06:39:44;5.85;;;4.32;;
60018;SDS011;45870;42.528;26.740;2023-06-22T06:42:09;6.22;;;4.50;;
60018;SDS011;45870;42.528;26.740;2023-06-22T06:44:36;4.50;;;4.10;;
60018;SDS011;45870;42.528;26.740;2023-06-22T06:47:03;6.88;;;4.80;;
60018;SDS011;45870;42.528;26.740;2023-06-22T06:49:29;5.35;;;4.28;;
60018;SDS011;45870;42.528;26.740;2023-06-22T06:51:55;6.07;;;4.20;;
60018;SDS011;45870;42.528;26.740;2023-06-22T06:54:21;5.00;;;4.50;;
60018;SDS011;45870;42.528;26.740;2023-06-22T06:56:47;4.78;;;4.20;;
60018;SDS011;45870;42.528;26.740;2023-06-22T06:59:14;6.32;;;4.57;;
60018;SDS011;45870;42.528;26.740;2023-06-22T07:01:40;6.55;;;4.28;;
60018;SDS011;45870;42.528;26.740;2023-06-22T07:04:07;7.05;;;4.55;;
60018;SDS011;45870;42.528;26.740;2023-06-22T07:06:32;7.05;;;4.85;;
60018;SDS011;45870;42.528;26.740;2023-06-22T07:08:59;4.78;;;4.28;;
60018;SDS011;45870;42.528;26.740;2023-06-22T07:11:25;8.10;;;4.30;;
60018;SDS011;45870;42.528;26.740;2023-06-22T07:13:50;5.70;;;4.50;;
60018;SDS011;45870;42.528;26.740;2023-06-22T07:16:16;7.07;;;4.70;;
60018;SDS011;45870;42.528;26.740;2023-06-22T07:18:41;6.63;;;4.28;;
60018;SDS011;45870;42.528;26.740;2023-06-22T07:21:07;5.20;;;4.40;;
60018;SDS011;45870;42.528;26.740;2023-06-22T07:23:34;5.00;;;4.45;;
60018;SDS011;45870;42.528;26.740;2023-06-22T07:25:59;5.30;;;4.53;;
60018;SDS011;45870;42.528;26.740;2023-06-22T07:28:27;7.55;;;3.88;;
60018;SDS011;45870;42.528;26.740;2023-06-22T07:30:54;5.68;;;4.20;;
60018;SDS011;45870;42.528;26.740;2023-06-22T07:33:20;4.82;;;4.13;;
60018;SDS011;45870;42.528;26.740;2023-06-22T07:35:45;4.70;;;4.05;;
60018;SDS011;45870;42.528;26.740;2023-06-22T07:38:12;6.82;;;4.20;;
60018;SDS011;45870;42.528;26.740;2023-06-22T07:40:39;5.68;;;4.40;;
60018;SDS011;45870;42.528;26.740;2023-06-22T07:43:06;5.47;;;4.55;;
60018;SDS011;45870;42.528;26.740;2023-06-22T07:45:32;8.32;;;4.43;;
60018;SDS011;45870;42.528;26.740;2023-06-22T07:48:00;5.10;;;4.60;;
60018;SDS011;45870;42.528;26.740;2023-06-22T07:50:26;4.90;;;4.40;;
60018;SDS011;45870;42.528;26.740;2023-06-22T07:52:51;4.60;;;4.20;;
60018;SDS011;45870;42.528;26.740;2023-06-22T07:55:18;4.72;;;4.22;;
60018;SDS011;45870;42.528;26.740;2023-06-22T07:57:43;4.68;;;4.07;;
60018;SDS011;45870;42.528;26.740;2023-06-22T08:00:10;4.78;;;4.25;;
60018;SDS011;45870;42.528;26.740;2023-06-22T08:02:40;5.30;;;4.50;;
60018;SDS011;45870;42.528;26.740;2023-06-22T08:05:07;4.65;;;4.15;;
60018;SDS011;45870;42.528;26.740;2023-06-22T08:07:34;5.75;;;4.30;;
60018;SDS011;45870;42.528;26.740;2023-06-22T08:10:03;5.05;;;4.43;;
60018;SDS011;45870;42.528;26.740;2023-06-22T08:12:30;6.07;;;4.30;;
60018;SDS011;45870;42.528;26.740;2023-06-22T08:14:55;6.30;;;4.35;;
60018;SDS011;45870;42.528;26.740;2023-06-22T08:17:22;4.88;;;4.35;;
60018;SDS011;45870;42.528;26.740;2023-06-22T08:19:52;5.03;;;3.85;;
60018;SDS011;45870;42.528;26.740;2023-06-22T08:22:18;4.38;;;3.97;;
60018;SDS011;45870;42.528;26.740;2023-06-22T08:24:44;6.05;;;4.45;;
60018;SDS011;45870;42.528;26.740;2023-06-22T08:27:10;8.45;;;4.30;;
60018;SDS011;45870;42.528;26.740;2023-06-22T08:29:40;6.13;;;4.20;;
60018;SDS011;45870;42.528;26.740;2023-06-22T08:32:10;5.55;;;4.13;;
60018;SDS011;45870;42.528;26.740;2023-06-22T08:34:37;4.97;;;4.40;;
60018;SDS011;45870;42.528;26.740;2023-06-22T08:37:07;5.95;;;4.80;;
60018;SDS011;45870;42.528;26.740;2023-06-22T08:39:33;6.05;;;5.07;;
60018;SDS011;45870;42.528;26.740;2023-06-22T08:41:59;5.32;;;4.63;;
60018;SDS011;45870;42.528;26.740;2023-06-22T08:44:25;5.47;;;4.43;;
60018;SDS011;45870;42.528;26.740;2023-06-22T08:46:51;5.10;;;4.60;;
60018;SDS011;45870;42.528;26.740;2023-06-22T08:49:16;6.00;;;4.68;;
60018;SDS011;45870;42.528;26.740;2023-06-22T08:51:42;6.60;;;4.50;;
60018;SDS011;45870;42.528;26.740;2023-06-22T08:54:11;5.63;;;4.38;;
60018;SDS011;45870;42.528;26.740;2023-06-22T08:56:36;6.00;;;4.93;;
60018;SDS011;45870;42.528;26.740;2023-06-22T08:59:02;5.20;;;4.70;;
60018;SDS011;45870;42.528;26.740;2023-06-22T09:01:28;6.53;;;4.45;;
60018;SDS011;45870;42.528;26.740;2023-06-22T09:03:53;6.32;;;4.30;;
60018;SDS011;45870;42.528;26.740;2023-06-22T09:06:23;4.55;;;4.15;;
60018;SDS011;45870;42.528;26.740;2023-06-22T09:08:49;5.60;;;4.47;;
60018;SDS011;45870;42.528;26.740;2023-06-22T09:11:15;5.57;;;4.10;;
60018;SDS011;45870;42.528;26.740;2023-06-22T09:13:41;4.60;;;4.20;;
60018;SDS011;45870;42.528;26.740;2023-06-22T09:16:07;6.80;;;4.45;;
60018;SDS011;45870;42.528;26.740;2023-06-22T09:18:33;7.40;;;4.30;;
60018;SDS011;45870;42.528;26.740;2023-06-22T09:20:59;5.43;;;4.10;;
60018;SDS011;45870;42.528;26.740;2023-06-22T09:23:25;6.38;;;4.70;;
60018;SDS011;45870;42.528;26.740;2023-06-22T09:25:50;8.80;;;4.40;;
60018;SDS011;45870;42.528;26.740;2023-06-22T09:28:16;5.38;;;4.35;;
60018;SDS011;45870;42.528;26.740;2023-06-22T09:30:45;4.93;;;4.43;;
60018;SDS011;45870;42.528;26.740;2023-06-22T09:33:10;13.35;;;4.68;;
60018;SDS011;45870;42.528;26.740;2023-06-22T09:35:36;4.60;;;4.20;;
60018;SDS011;45870;42.528;26.740;2023-06-22T09:38:02;5.07;;;4.18;;
60018;SDS011;45870;42.528;26.740;2023-06-22T09:40:27;6.53;;;4.53;;
60018;SDS011;45870;42.528;26.740;2023-06-22T09:42:53;4.72;;;4.28;;
60018;SDS011;45870;42.528;26.740;2023-06-22T09:45:19;5.63;;;4.38;;
60018;SDS011;45870;42.528;26.740;2023-06-22T09:47:44;4.97;;;4.25;;
60018;SDS011;45870;42.528;26.740;2023-06-22T09:50:10;4.82;;;4.32;;
60018;SDS011;45870;42.528;26.740;2023-06-22T09:52:36;8.18;;;4.60;;
60018;SDS011;45870;42.528;26.740;2023-06-22T09:55:02;4.32;;;3.92;;
60018;SDS011;45870;42.528;26.740;2023-06-22T09:57:28;4.38;;;3.97;;
60018;SDS011;45870;42.528;26.740;2023-06-22T09:59:54;5.22;;;4.72;;
60018;SDS011;45870;42.528;26.740;2023-06-22T10:02:20;7.50;;;4.50;;
60018;SDS011;45870;42.528;26.740;2023-06-22T10:04:47;5.00;;;4.10;;
60018;SDS011;45870;42.528;26.740;2023-06-22T10:07:13;5.70;;;4.18;;
60018;SDS011;45870;42.528;26.740;2023-06-22T10:09:38;4.82;;;4.38;;
60018;SDS011;45870;42.528;26.740;2023-06-22T10:12:04;5.05;;;4.07;;
60018;SDS011;45870;42.528;26.740;2023-06-22T10:14:30;5.15;;;4.65;;
60018;SDS011;45870;42.528;26.740;2023-06-22T10:16:56;5.55;;;4.13;;
60018;SDS011;45870;42.528;26.740;2023-06-22T10:19:22;5.88;;;4.50;;
60018;SDS011;45870;42.528;26.740;2023-06-22T10:21:47;4.88;;;4.38;;
60018;SDS011;45870;42.528;26.740;2023-06-22T10:24:13;5.35;;;4.13;;
60018;SDS011;45870;42.528;26.740;2023-06-22T10:26:40;4.43;;;4.03;;
60018;SDS011;45870;42.528;26.740;2023-06-22T10:29:06;5.40;;;4.10;;
60018;SDS011;45870;42.528;26.740;2023-06-22T10:31:31;4.63;;;4.22;;
60018;SDS011;45870;42.528;26.740;2023-06-22T10:33:57;6.07;;;4.63;;
60018;SDS011;45870;42.528;26.740;2023-06-22T10:39:32;6.80;;;4.30;;
60018;SDS011;45870;42.528;26.740;2023-06-22T10:41:57;5.30;;;4.10;;
60018;SDS011;45870;42.528;26.740;2023-06-22T10:44:23;4.90;;;4.40;;
60018;SDS011;45870;42.528;26.740;2023-06-22T10:46:48;5.32;;;4.40;;
60018;SDS011;45870;42.528;26.740;2023-06-22T10:49:14;5.10;;;4.60;;
60018;SDS011;45870;42.528;26.740;2023-06-22T10:51:39;5.80;;;4.30;;
60018;SDS011;45870;42.528;26.740;2023-06-22T10:54:06;5.97;;;4.45;;
60018;SDS011;45870;42.528;26.740;2023-06-22T10:56:32;4.38;;;3.97;;
60018;SDS011;45870;42.528;26.740;2023-06-22T10:58:58;6.55;;;4.55;;
60018;SDS011;45870;42.528;26.740;2023-06-22T11:01:24;5.60;;;4.40;;
60018;SDS011;45870;42.528;26.740;2023-06-22T11:03:49;6.00;;;4.60;;
60018;SDS011;45870;42.528;26.740;2023-06-22T11:06:15;4.88;;;4.35;;
60018;SDS011;45870;42.528;26.740;2023-06-22T11:08:43;4.85;;;4.35;;
60018;SDS011;45870;42.528;26.740;2023-06-22T11:11:09;6.18;;;4.15;;
60018;SDS011;45870;42.528;26.740;2023-06-22T11:13:35;5.75;;;4.20;;
60018;SDS011;45870;42.528;26.740;2023-06-22T11:16:00;4.75;;;4.00;;
60018;SDS011;45870;42.528;26.740;2023-06-22T11:18:27;4.15;;;3.72;;
60018;SDS011;45870;42.528;26.740;2023-06-22T11:20:53;4.55;;;4.15;;
60018;SDS011;45870;42.528;26.740;2023-06-22T11:23:19;7.05;;;4.00;;
60018;SDS011;45870;42.528;26.740;2023-06-22T11:25:44;5.20;;;4.70;;
60018;SDS011;45870;42.528;26.740;2023-06-22T11:28:11;5.60;;;4.45;;
60018;SDS011;45870;42.528;26.740;2023-06-22T11:30:37;4.80;;;4.30;;
60018;SDS011;45870;42.528;26.740;2023-06-22T11:33:02;6.13;;;4.75;;
60018;SDS011;45870;42.528;26.740;2023-06-22T11:35:28;4.75;;;4.32;;
60018;SDS011;45870;42.528;26.740;2023-06-22T11:37:53;5.32;;;4.50;;
60018;SDS011;45870;42.528;26.740;2023-06-22T11:40:21;5.63;;;5.00;;
60018;SDS011;45870;42.528;26.740;2023-06-22T11:42:48;4.97;;;4.30;;
60018;SDS011;45870;42.528;26.740;2023-06-22T11:45:13;6.20;;;4.43;;
60018;SDS011;45870;42.528;26.740;2023-06-22T11:47:39;6.60;;;4.53;;
60018;SDS011;45870;42.528;26.740;2023-06-22T11:50:05;5.55;;;4.60;;
60018;SDS011;45870;42.528;26.740;2023-06-22T11:52:32;4.43;;;4.03;;
60018;SDS011;45870;42.528;26.740;2023-06-22T11:54:59;5.13;;;4.50;;
60018;SDS011;45870;42.528;26.740;2023-06-22T11:57:24;6.30;;;4.10;;
60018;SDS011;45870;42.528;26.740;2023-06-22T11:59:50;4.97;;;4.47;;
60018;SDS011;45870;42.528;26.740;2023-06-22T12:02:15;5.15;;;4.63;;
60018;SDS011;45870;42.528;26.740;2023-06-22T12:04:41;4.60;;;4.20;;
60018;SDS011;45870;42.528;26.740;2023-06-22T12:07:07;6.13;;;4.68;;
60018;SDS011;45870;42.528;26.740;2023-06-22T12:09:39;4.82;;;3.90;;
60018;SDS011;45870;42.528;26.740;2023-06-22T12:12:04;4.85;;;4.40;;
60018;SDS011;45870;42.528;26.740;2023-06-22T12:14:30;4.68;;;4.07;;
60018;SDS011;45870;42.528;26.740;2023-06-22T12:16:56;7.70;;;4.10;;
60018;SDS011;45870;42.528;26.740;2023-06-22T12:19:22;6.00;;;4.47;;
60018;SDS011;45870;42.528;26.740;2023-06-22T12:21:47;4.40;;;3.97;;
60018;SDS011;45870;42.528;26.740;2023-06-22T12:24:13;5.57;;;4.53;;
60018;SDS011;45870;42.528;26.740;2023-06-22T12:26:39;6.40;;;4.18;;
60018;SDS011;45870;42.528;26.740;2023-06-22T12:29:04;4.80;;;4.30;;
60018;SDS011;45870;42.528;26.740;2023-06-22T12:31:30;7.20;;;4.03;;
60018;SDS011;45870;42.528;26.740;2023-06-22T12:33:55;4.80;;;4.30;;
60018;SDS011;45870;42.528;26.740;2023-06-22T12:36:21;6.50;;;4.30;;
60018;SDS011;45870;42.528;26.740;2023-06-22T12:38:47;5.38;;;4.38;;
60018;SDS011;45870;42.528;26.740;2023-06-22T12:41:12;5.22;;;4.18;;
60018;SDS011;45870;42.528;26.740;2023-06-22T12:43:38;6.88;;;3.85;;
60018;SDS011;45870;42.528;26.740;2023-06-22T12:52:47;4.22;;;3.60;;
60018;SDS011;45870;42.528;26.740;2023-06-22T12:55:13;4.32;;;3.80;;
60018;SDS011;45870;42.528;26.740;2023-06-22T12:57:38;4.85;;;4.13;;
60018;SDS011;45870;42.528;26.740;2023-06-22T13:00:04;6.53;;;3.65;;
60018;SDS011;45870;42.528;26.740;2023-06-22T13:02:32;4.38;;;3.90;;
60018;SDS011;45870;42.528;26.740;2023-06-22T13:04:58;4.60;;;4.10;;
60018;SDS011;45870;42.528;26.740;2023-06-22T13:07:23;4.45;;;3.83;;
60018;SDS011;45870;42.528;26.740;2023-06-22T13:09:50;4.07;;;3.67;;
60018;SDS011;45870;42.528;26.740;2023-06-22T13:12:16;5.82;;;4.03;;
60018;SDS011;45870;42.528;26.740;2023-06-22T13:14:42;5.53;;;4.50;;
60018;SDS011;45870;42.528;26.740;2023-06-22T13:17:12;6.63;;;4.03;;
60018;SDS011;45870;42.528;26.740;2023-06-22T13:19:39;4.85;;;4.35;;
60018;SDS011;45870;42.528;26.740;2023-06-22T13:22:04;7.18;;;4.20;;
60018;SDS011;45870;42.528;26.740;2023-06-22T13:24:32;4.50;;;3.92;;
60018;SDS011;45870;42.528;26.740;2023-06-22T13:26:57;4.93;;;3.92;;
60018;SDS011;45870;42.528;26.740;2023-06-22T13:29:23;5.72;;;4.10;;
60018;SDS011;45870;42.528;26.740;2023-06-22T13:31:48;5.57;;;4.32;;
60018;SDS011;45870;42.528;26.740;2023-06-22T13:34:15;4.78;;;4.28;;
60018;SDS011;45870;42.528;26.740;2023-06-22T13:36:40;4.75;;;4.35;;
60018;SDS011;45870;42.528;26.740;2023-06-22T13:39:06;5.88;;;4.60;;
60018;SDS011;45870;42.528;26.740;2023-06-22T13:41:31;4.10;;;3.70;;
60018;SDS011;45870;42.528;26.740;2023-06-22T13:43:57;4.55;;;4.10;;
60018;SDS011;45870;42.528;26.740;2023-06-22T13:46:23;6.35;;;4.70;;
60018;SDS011;45870;42.528;26.740;2023-06-22T13:48:48;5.75;;;4.63;;
60018;SDS011;45870;42.528;26.740;2023-06-22T13:51:14;6.03;;;4.13;;
60018;SDS011;45870;42.528;26.740;2023-06-22T13:53:40;6.47;;;4.07;;
60018;SDS011;45870;42.528;26.740;2023-06-22T13:56:05;5.05;;;4.13;;
60018;SDS011;45870;42.528;26.740;2023-06-22T13:58:31;4.50;;;4.10;;
60018;SDS011;45870;42.528;26.740;2023-06-22T14:00:56;5.55;;;4.30;;
60018;SDS011;45870;42.528;26.740;2023-06-22T14:03:22;6.05;;;4.50;;
60018;SDS011;45870;42.528;26.740;2023-06-22T14:05:48;4.35;;;3.95;;
60018;SDS011;45870;42.528;26.740;2023-06-22T14:08:14;5.25;;;4.53;;
60018;SDS011;45870;42.528;26.740;2023-06-22T14:10:40;5.65;;;4.47;;
60018;SDS011;45870;42.528;26.740;2023-06-22T14:13:05;7.35;;;4.63;;
60018;SDS011;45870;42.528;26.740;2023-06-22T14:15:31;4.93;;;4.40;;
60018;SDS011;45870;42.528;26.740;2023-06-22T14:17:57;4.95;;;4.45;;
60018;SDS011;45870;42.528;26.740;2023-06-22T14:20:23;5.30;;;4.50;;
60018;SDS011;45870;42.528;26.740;2023-06-22T14:22:48;5.07;;;4.57;;
60018;SDS011;45870;42.528;26.740;2023-06-22T14:25:14;6.45;;;4.78;;
60018;SDS011;45870;42.528;26.740;2023-06-22T14:27:40;5.13;;;4.55;;
60018;SDS011;45870;42.528;26.740;2023-06-22T14:30:05;6.18;;;4.85;;
60018;SDS011;45870;42.528;26.740;2023-06-22T14:32:31;6.70;;;4.65;;
60018;SDS011;45870;42.528;26.740;2023-06-22T14:34:57;9.13;;;4.60;;
60018;SDS011;45870;42.528;26.740;2023-06-22T14:37:23;5.13;;;4.60;;
60018;SDS011;45870;42.528;26.740;2023-06-22T14:39:48;4.72;;;4.30;;
60018;SDS011;45870;42.528;26.740;2023-06-22T14:42:14;6.40;;;4.50;;
60018;SDS011;45870;42.528;26.740;2023-06-22T14:44:40;5.00;;;4.50;;